createdAt,value
2022-11-25T00:02:48.311Z,37.57
2022-11-25T00:05:51.302Z,36.23
2022-11-25T00:08:57.708Z,37.30
2022-11-25T00:12:00.656Z,39.57
2022-11-25T00:15:04.701Z,37.97
2022-11-25T00:18:09.125Z,37.00
2022-11-25T00:21:15.153Z,38.70
2022-11-25T00:24:20.492Z,36.47
2022-11-25T00:27:23.740Z,36.67
2022-11-25T00:30:26.746Z,37.57
2022-11-25T00:33:31.203Z,37.80
2022-11-25T00:36:37.427Z,36.83
2022-11-25T00:39:40.430Z,37.73
2022-11-25T00:43:00.975Z,35.10
2022-11-25T00:46:03.953Z,37.33
2022-11-25T00:49:08.606Z,37.13
2022-11-25T00:52:16.742Z,37.43
2022-11-25T00:55:19.742Z,35.03
2022-11-25T00:58:22.763Z,35.57
2022-11-25T01:01:27.440Z,35.00
2022-11-25T01:04:31.820Z,35.27
2022-11-25T01:07:34.802Z,34.83
2022-11-25T01:10:37.754Z,34.23
2022-11-25T01:13:41.887Z,35.50
2022-11-25T01:16:44.936Z,33.97
2022-11-25T01:19:49.346Z,35.27
2022-11-25T01:22:53.358Z,36.10
2022-11-25T01:25:56.389Z,33.23
2022-11-25T01:29:03.635Z,34.60
2022-11-25T01:32:09.868Z,34.27
2022-11-25T01:35:16.428Z,34.27
2022-11-25T01:38:19.400Z,33.53
2022-11-25T01:41:24.243Z,36.90
2022-11-25T01:44:30.315Z,36.43
2022-11-25T01:47:34.366Z,36.57
2022-11-25T01:50:39.390Z,36.47
2022-11-25T01:53:42.506Z,34.37
2022-11-25T01:56:53.073Z,33.93
2022-11-25T02:00:00.854Z,33.77
2022-11-25T02:03:04.493Z,35.50
2022-11-25T02:06:13.611Z,34.77
2022-11-25T02:09:17.576Z,34.47
2022-11-25T02:12:22.766Z,34.37
2022-11-25T02:15:26.833Z,33.80
2022-11-25T02:18:31.374Z,36.83
2022-11-25T02:21:44.914Z,35.90
2022-11-25T02:24:49.797Z,37.10
2022-11-25T02:27:58.721Z,35.30
2022-11-25T02:31:01.901Z,35.90
2022-11-25T02:34:05.213Z,36.33
2022-11-25T02:37:11.110Z,33.57
2022-11-25T02:40:15.400Z,36.07
2022-11-25T02:43:19.840Z,36.33
2022-11-25T02:46:25.872Z,36.43
2022-11-25T02:49:28.900Z,34.53
2022-11-25T02:52:31.887Z,38.43
2022-11-25T02:55:36.019Z,37.03
2022-11-25T02:58:41.289Z,36.17
2022-11-25T03:01:44.993Z,37.13
2022-11-25T03:04:47.961Z,35.83
2022-11-25T03:07:51.434Z,35.87
2022-11-25T03:10:59.433Z,38.33
2022-11-25T03:14:05.395Z,34.93
2022-11-25T03:17:09.887Z,37.83
2022-11-25T03:20:15.183Z,39.50
2022-11-25T03:23:19.516Z,41.83
2022-11-25T03:26:22.894Z,37.93
2022-11-25T03:29:29.728Z,38.80
2022-11-25T03:32:32.872Z,39.73
2022-11-25T03:35:40.523Z,39.20
2022-11-25T03:38:45.859Z,37.03
2022-11-25T03:41:50.999Z,41.63
2022-11-25T03:44:57.791Z,38.40
2022-11-25T03:48:02.870Z,40.63
2022-11-25T03:51:06.425Z,41.57
2022-11-25T03:54:13.196Z,41.17
2022-11-25T03:57:36.588Z,37.87
2022-11-25T04:00:40.999Z,39.00
2022-11-25T04:03:43.968Z,37.50
2022-11-25T04:06:49.867Z,39.40
2022-11-25T04:09:54.126Z,37.77
2022-11-25T04:13:00.997Z,40.47
2022-11-25T04:16:24.550Z,35.90
2022-11-25T04:19:28.998Z,36.90
2022-11-25T04:22:34.820Z,39.63
2022-11-25T04:25:41.346Z,41.37
2022-11-25T04:28:49.357Z,40.23
2022-11-25T04:31:53.677Z,36.40
2022-11-25T04:34:56.753Z,36.60
2022-11-25T04:37:59.951Z,36.47
2022-11-25T04:41:03.364Z,38.00
2022-11-25T04:44:11.797Z,36.70
2022-11-25T04:47:16.911Z,37.47
2022-11-25T04:50:23.984Z,39.83
2022-11-25T04:53:37.627Z,37.20
2022-11-25T04:56:42.702Z,39.13
2022-11-25T04:59:46.827Z,36.30
2022-11-25T05:02:53.540Z,37.60
2022-11-25T05:05:57.743Z,35.33
2022-11-25T05:09:00.920Z,35.17
2022-11-25T05:12:04.904Z,37.60
2022-11-25T05:15:10.036Z,35.17
2022-11-25T05:18:16.315Z,36.50
2022-11-25T05:21:21.910Z,35.90
2022-11-25T05:24:25.376Z,36.43
2022-11-25T05:27:29.298Z,36.63
2022-11-25T05:30:35.672Z,36.23
2022-11-25T05:33:39.953Z,35.63
2022-11-25T05:36:45.535Z,33.93
2022-11-25T05:39:48.943Z,36.37
2022-11-25T05:42:53.368Z,34.23
2022-11-25T05:45:56.883Z,34.93
2022-11-25T05:49:02.171Z,35.63
2022-11-25T05:52:05.296Z,35.77
2022-11-25T05:55:15.422Z,33.17
2022-11-25T05:58:23.427Z,33.50
2022-11-25T06:01:29.532Z,33.77
2022-11-25T06:04:34.202Z,35.43
2022-11-25T06:07:38.622Z,32.43
2022-11-25T06:10:42.615Z,35.53
2022-11-25T06:13:49.459Z,34.97
2022-11-25T06:16:53.548Z,34.63
2022-11-25T06:20:02.898Z,34.87
2022-11-25T06:23:07.449Z,33.77
2022-11-25T06:26:16.123Z,36.17
2022-11-25T06:29:19.211Z,34.97
2022-11-25T06:32:25.939Z,35.10
2022-11-25T06:35:37.054Z,33.27
2022-11-25T06:38:40.443Z,34.80
2022-11-25T06:41:43.751Z,35.57
2022-11-25T06:44:46.684Z,35.03
2022-11-25T06:47:49.925Z,34.60
2022-11-25T06:51:03.124Z,32.60
2022-11-25T06:54:07.223Z,33.33
2022-11-25T06:57:10.889Z,34.87
2022-11-25T07:00:15.283Z,31.33
2022-11-25T07:03:18.306Z,32.30
2022-11-25T07:06:23.486Z,33.17
2022-11-25T07:09:26.866Z,33.63
2022-11-25T07:12:32.212Z,31.47
2022-11-25T07:15:38.403Z,33.30
2022-11-25T07:18:42.330Z,32.90
2022-11-25T07:21:47.466Z,33.20
2022-11-25T07:24:50.996Z,33.57
2022-11-25T07:27:54.232Z,34.03
2022-11-25T07:34:22.360Z,32.83
2022-11-25T07:37:27.647Z,34.10
2022-11-25T07:40:31.141Z,33.33
2022-11-25T07:43:34.949Z,31.20
2022-11-25T07:46:40.849Z,31.23
2022-11-25T07:49:43.870Z,30.47
2022-11-25T07:52:48.396Z,31.63
2022-11-25T07:55:51.384Z,30.23
2022-11-25T07:58:54.781Z,31.90
2022-11-25T08:01:57.939Z,33.10
2022-11-25T08:05:00.945Z,33.07
2022-11-25T08:08:06.488Z,32.27
2022-11-25T08:11:12.051Z,35.90
2022-11-25T08:14:15.861Z,34.37
2022-11-25T08:17:18.859Z,30.20
2022-11-25T08:20:22.265Z,33.50
2022-11-25T08:23:26.539Z,32.13
2022-11-25T08:26:31.710Z,37.67
2022-11-25T08:29:34.868Z,30.43
2022-11-25T08:32:39.324Z,35.50
2022-11-25T08:35:42.557Z,32.93
2022-11-25T08:38:49.795Z,31.20
2022-11-25T08:41:52.760Z,36.07
2022-11-25T08:44:57.059Z,34.13
2022-11-25T08:48:00.012Z,37.20
2022-11-25T08:51:03.262Z,32.23
2022-11-25T08:54:09.619Z,33.90
2022-11-25T08:57:12.947Z,35.03
2022-11-25T09:00:17.515Z,35.00
2022-11-25T09:03:20.526Z,35.10
2022-11-25T09:06:25.741Z,32.90
2022-11-25T09:09:30.048Z,33.30
2022-11-25T09:12:33.031Z,35.53
2022-11-25T09:15:35.992Z,35.43
2022-11-25T09:18:39.911Z,33.90
2022-11-25T09:21:44.468Z,33.70
2022-11-25T09:24:48.925Z,34.57
2022-11-25T09:27:51.976Z,35.97
2022-11-25T09:30:55.109Z,34.73
2022-11-25T09:33:58.162Z,36.17
2022-11-25T09:37:02.222Z,35.50
2022-11-25T09:40:15.201Z,36.93
2022-11-25T09:43:54.316Z,35.90
2022-11-25T09:47:06.850Z,35.80
2022-11-25T09:50:19.949Z,38.67
2022-11-25T09:53:38.688Z,36.50
2022-11-25T09:56:48.389Z,36.53
2022-11-25T10:00:06.128Z,36.50
2022-11-25T10:03:30.936Z,37.57
2022-11-25T10:06:42.439Z,39.20
2022-11-25T10:09:45.855Z,38.87
2022-11-25T10:12:52.588Z,37.63
2022-11-25T10:15:59.145Z,38.50
2022-11-25T10:19:08.425Z,37.33
2022-11-25T10:22:24.229Z,38.90
2022-11-25T10:25:31.480Z,36.03
2022-11-25T10:28:36.508Z,37.20
2022-11-25T10:31:40.517Z,35.60
2022-11-25T10:34:49.771Z,36.00
2022-11-25T10:37:57.376Z,35.10
2022-11-25T10:41:01.425Z,34.43
2022-11-25T10:44:27.768Z,34.60
2022-11-25T10:47:37.848Z,33.97
2022-11-25T10:50:56.373Z,34.67
2022-11-25T10:54:27.313Z,34.70
2022-11-25T10:57:31.027Z,32.27
2022-11-25T11:00:38.753Z,30.73
2022-11-25T11:03:42.666Z,28.07
2022-11-25T11:06:48.758Z,28.73
2022-11-25T11:09:52.352Z,31.47
2022-11-25T11:13:01.292Z,31.70
2022-11-25T11:16:22.893Z,30.67
2022-11-25T11:19:29.173Z,30.00
2022-11-25T11:22:36.745Z,31.27
2022-11-25T11:25:44.652Z,36.90
2022-11-25T11:28:47.606Z,32.67
2022-11-25T11:32:01.682Z,32.23
2022-11-25T11:35:14.341Z,33.27
2022-11-25T11:38:37.693Z,34.57
2022-11-25T11:41:46.435Z,35.87
2022-11-25T11:45:07.898Z,37.50
2022-11-25T11:48:28.399Z,37.50
2022-11-25T11:51:40.503Z,39.87
2022-11-25T11:54:47.740Z,36.07
2022-11-25T11:58:00.422Z,36.17
2022-11-25T12:01:20.777Z,35.80
2022-11-25T12:04:30.427Z,31.23
2022-11-25T12:07:37.922Z,31.03
2022-11-25T12:10:44.867Z,31.87
2022-11-25T12:14:00.804Z,36.93
2022-11-25T12:17:14.630Z,31.40
2022-11-25T12:20:33.430Z,32.83
2022-11-25T12:23:46.154Z,29.77
2022-11-25T12:26:58.120Z,31.17
2022-11-25T12:30:07.271Z,30.03
2022-11-25T12:33:17.858Z,30.70
2022-11-25T12:36:32.833Z,29.13
2022-11-25T12:39:44.176Z,29.63
2022-11-25T12:42:50.009Z,28.87
2022-11-25T12:46:06.320Z,28.43
2022-11-25T12:49:20.235Z,27.13
2022-11-25T12:52:44.573Z,30.17
2022-11-25T12:55:47.563Z,27.97
2022-11-25T12:59:03.830Z,28.90
2022-11-25T13:02:37.158Z,30.10
2022-11-25T13:06:17.203Z,30.50
2022-11-25T13:09:56.366Z,30.23
2022-11-25T13:13:22.151Z,31.43
2022-11-25T13:16:27.037Z,35.10
2022-11-25T13:19:33.631Z,29.20
2022-11-25T13:22:36.680Z,32.00
2022-11-25T13:25:44.344Z,30.00
2022-11-25T13:28:47.287Z,30.77
2022-11-25T13:31:59.636Z,32.77
2022-11-25T13:35:36.442Z,30.67
2022-11-25T13:39:00.510Z,33.40
2022-11-25T13:42:16.546Z,31.17
2022-11-25T13:45:29.130Z,31.53
2022-11-25T13:48:37.031Z,31.50
2022-11-25T13:51:50.769Z,33.97
2022-11-25T13:54:55.967Z,33.63
2022-11-25T13:58:14.627Z,33.73
2022-11-25T14:01:30.280Z,31.60
2022-11-25T14:04:46.737Z,30.67
2022-11-25T14:08:07.846Z,33.13
2022-11-25T14:11:40.000Z,33.00
2022-11-25T14:15:06.071Z,33.90
2022-11-25T14:19:21.661Z,32.17
2022-11-25T14:22:24.607Z,29.63
2022-11-25T14:25:31.684Z,30.97
2022-11-25T14:28:41.166Z,31.83
2022-11-25T14:31:51.445Z,32.33
2022-11-25T14:35:01.535Z,31.30
2022-11-25T14:38:10.670Z,32.23
2022-11-25T14:41:20.396Z,32.10
2022-11-25T14:44:28.851Z,32.67
2022-11-25T14:47:38.606Z,34.07
2022-11-25T14:50:53.711Z,33.67
2022-11-25T14:53:57.741Z,36.90
2022-11-25T14:57:01.179Z,35.20
2022-11-25T15:00:07.974Z,32.83
2022-11-25T15:03:21.088Z,34.07
2022-11-25T15:06:24.088Z,32.60
2022-11-25T15:09:31.511Z,31.03
2022-11-25T15:12:34.801Z,30.17
2022-11-25T15:15:37.949Z,32.37
2022-11-25T15:18:51.325Z,32.23
2022-11-25T15:22:23.149Z,31.83
2022-11-25T15:25:25.809Z,31.57
2022-11-25T15:28:34.824Z,33.07
2022-11-25T15:31:41.491Z,31.80
2022-11-25T15:34:47.511Z,30.90
2022-11-25T15:37:50.971Z,32.53
2022-11-25T15:40:57.311Z,33.63
2022-11-25T15:44:02.927Z,30.27
2022-11-25T15:47:15.537Z,32.50
2022-11-25T15:50:24.108Z,33.13
2022-11-25T15:53:33.147Z,34.83
2022-11-25T15:56:40.587Z,33.33
2022-11-25T15:59:50.586Z,31.13
2022-11-25T16:02:55.746Z,30.13
2022-11-25T16:06:01.855Z,30.17
2022-11-25T16:09:21.603Z,28.43
2022-11-25T16:12:31.082Z,29.70
2022-11-25T16:15:56.615Z,28.50
2022-11-25T16:19:18.601Z,27.03
2022-11-25T16:22:23.668Z,28.70
2022-11-25T16:25:27.185Z,28.17
2022-11-25T16:28:30.793Z,27.77
2022-11-25T16:31:33.803Z,27.70
2022-11-25T16:34:36.987Z,28.07
2022-11-25T16:41:12.669Z,27.17
2022-11-25T16:44:21.169Z,26.90
2022-11-25T16:47:26.154Z,30.60
2022-11-25T16:50:29.141Z,27.97
2022-11-25T16:53:33.418Z,27.60
2022-11-25T16:56:42.774Z,27.23
2022-11-25T16:59:47.304Z,24.57
2022-11-25T17:02:50.367Z,27.70
2022-11-25T17:05:55.148Z,26.43
2022-11-25T17:08:59.462Z,26.40
2022-11-25T17:12:02.675Z,25.57
2022-11-25T17:15:09.741Z,28.63
2022-11-25T17:18:16.835Z,27.50
2022-11-25T17:21:19.884Z,26.87
2022-11-25T17:24:25.916Z,27.93
2022-11-25T17:27:33.175Z,27.93
2022-11-25T17:30:41.511Z,27.50
2022-11-25T17:33:55.813Z,29.07
2022-11-25T17:37:00.337Z,25.93
2022-11-25T17:40:06.334Z,25.70
2022-11-25T17:43:15.447Z,26.57
2022-11-25T17:46:19.556Z,27.47
2022-11-25T17:49:22.901Z,27.17
2022-11-25T17:52:25.921Z,26.60
2022-11-25T17:55:30.852Z,24.50
2022-11-25T17:58:37.516Z,25.03
2022-11-25T18:01:40.535Z,24.03
2022-11-25T18:04:43.576Z,24.53
2022-11-25T18:07:46.833Z,27.53
2022-11-25T18:10:51.287Z,25.37
2022-11-25T18:13:55.732Z,25.70
2022-11-25T18:17:02.339Z,24.87
2022-11-25T18:20:17.919Z,24.47
2022-11-25T18:23:21.082Z,25.27
2022-11-25T18:26:25.570Z,24.60
2022-11-25T18:29:28.787Z,26.10
2022-11-25T18:32:31.705Z,26.80
2022-11-25T18:35:36.848Z,26.00
2022-11-25T18:38:40.559Z,26.07
2022-11-25T18:41:46.544Z,25.17
2022-11-25T18:44:51.935Z,26.80
2022-11-25T18:47:55.347Z,26.27
2022-11-25T18:50:58.282Z,26.60
2022-11-25T18:54:01.214Z,26.90
2022-11-25T18:57:05.903Z,27.07
2022-11-25T19:00:32.844Z,24.90
2022-11-25T19:03:36.458Z,25.17
2022-11-25T19:06:41.531Z,26.30
2022-11-25T19:09:44.587Z,27.63
2022-11-25T19:12:53.207Z,26.50
2022-11-25T19:15:57.531Z,28.00
2022-11-25T19:19:05.513Z,29.57
2022-11-25T19:22:11.901Z,31.13
2022-11-25T19:25:15.331Z,29.57
2022-11-25T19:28:20.224Z,30.80
2022-11-25T19:31:23.640Z,29.60
2022-11-25T19:34:32.514Z,31.67
2022-11-25T19:37:39.072Z,32.90
2022-11-25T19:40:42.192Z,30.67
2022-11-25T19:43:47.026Z,33.73
2022-11-25T19:50:23.279Z,33.30
2022-11-25T19:53:33.744Z,32.73
2022-11-25T19:56:47.933Z,33.53
2022-11-25T19:59:53.074Z,32.83
2022-11-25T20:02:57.208Z,32.97
2022-11-25T20:06:00.386Z,30.93
2022-11-25T20:09:07.894Z,29.67
2022-11-25T20:12:22.806Z,31.07
2022-11-25T20:15:27.971Z,30.27
2022-11-25T20:18:31.289Z,29.70
2022-11-25T20:21:38.547Z,32.63
2022-11-25T20:24:43.542Z,33.63
2022-11-25T20:27:46.659Z,29.27
2022-11-25T20:30:52.177Z,28.33
2022-11-25T20:33:55.352Z,28.33
2022-11-25T20:36:58.462Z,26.50
2022-11-25T20:40:02.435Z,29.23
2022-11-25T20:43:05.623Z,30.53
2022-11-25T20:46:17.963Z,26.13
2022-11-25T20:49:25.746Z,23.90
2022-11-25T20:52:32.397Z,26.03
2022-11-25T20:55:35.518Z,27.97
2022-11-25T20:58:39.549Z,27.00
2022-11-25T21:01:44.944Z,27.30
2022-11-25T21:04:48.062Z,26.37
2022-11-25T21:07:51.998Z,26.43
2022-11-25T21:10:57.249Z,28.10
2022-11-25T21:14:01.915Z,27.27
2022-11-25T21:17:06.820Z,27.00
2022-11-25T21:20:13.656Z,25.87
2022-11-25T21:23:22.217Z,23.33
2022-11-25T21:26:27.613Z,24.83
2022-11-25T21:29:32.293Z,26.27
2022-11-25T21:32:36.695Z,27.33
2022-11-25T21:35:41.709Z,27.17
2022-11-25T21:38:45.386Z,28.13
2022-11-25T21:41:48.379Z,26.27
2022-11-25T21:44:53.122Z,25.33
2022-11-25T21:47:57.521Z,26.27
2022-11-25T21:51:01.335Z,25.70
2022-11-25T21:54:05.063Z,26.10
2022-11-25T21:57:19.435Z,25.50
2022-11-25T22:00:25.981Z,27.30
2022-11-25T22:03:35.173Z,27.23
2022-11-25T22:06:38.545Z,27.80
2022-11-25T22:09:43.754Z,28.53
2022-11-25T22:12:48.157Z,28.50
2022-11-25T22:15:56.272Z,29.13
2022-11-25T22:19:00.965Z,28.93
2022-11-25T22:22:03.900Z,27.13
2022-11-25T22:25:10.018Z,26.80
2022-11-25T22:28:18.290Z,27.40
2022-11-25T22:31:22.202Z,28.23
2022-11-25T22:34:29.977Z,32.03
2022-11-25T22:37:34.093Z,32.03
2022-11-25T22:40:38.657Z,29.80
2022-11-25T22:43:50.680Z,27.30
2022-11-25T22:46:54.533Z,28.03
2022-11-25T22:49:59.667Z,27.83
2022-11-25T22:53:03.003Z,29.47
2022-11-25T22:56:06.556Z,27.57
2022-11-25T22:59:10.380Z,24.03
2022-11-25T23:02:20.772Z,20.80
2022-11-25T23:05:32.492Z,21.07
2022-11-25T23:08:36.895Z,28.77
2022-11-25T23:11:41.161Z,25.87
2022-11-25T23:14:45.267Z,24.03
2022-11-25T23:17:51.588Z,24.37
2022-11-25T23:20:56.262Z,21.37
2022-11-25T23:23:59.766Z,24.00
2022-11-25T23:27:02.798Z,22.63
2022-11-25T23:30:09.548Z,22.20
2022-11-25T23:33:22.946Z,22.30
2022-11-25T23:36:31.239Z,23.77
2022-11-25T23:39:34.367Z,21.10
2022-11-25T23:42:37.737Z,22.33
2022-11-25T23:45:48.307Z,24.43
2022-11-25T23:48:56.012Z,24.37
2022-11-25T23:52:07.988Z,28.80
2022-11-25T23:55:16.679Z,30.53
2022-11-25T23:58:23.483Z,30.47
